Terminal Aerodrome Forecast
Issued by NWS Quad Cities IA IL

Home | Current Version | Previous Version | Text Only | Print | Product List | Glossary On
Versions: 1 2 3 4 5 6 7 8 9 10 11 12 13 14 15 16 17 18 19 20 21 22 23 24 25 26 27 28 29 30 31 32 33 34 35 36 37
894
FTUS43 KDVN 011730 AAA
TAFMLI
TAF AMD
KMLI 011730Z 0118/0218 05009KT P6SM OVC010
      TEMPO 0119/0123 4SM -RA BR OVC008
     FM012300 02008KT 6SM BR OVC005
     FM020600 36007KT 6SM BR OVC015
     FM021200 03008KT P6SM OVC050=

USA.gov is the U.S. government's official web portal to all federal, state and local government web resources and services.